createdAt,value
2023-04-22T00:00:58.121Z,14.26
2023-04-22T00:02:01.095Z,8.14
2023-04-22T00:03:04.078Z,8.72
2023-04-22T00:04:07.252Z,11.99
2023-04-22T00:05:10.297Z,7.62
2023-04-22T00:06:13.349Z,11.84
2023-04-22T00:07:16.324Z,12.77
2023-04-22T00:08:19.336Z,12.07
2023-04-22T00:09:22.037Z,9.45
2023-04-22T00:10:24.700Z,10.01
2023-04-22T00:11:27.261Z,7.77
2023-04-22T00:12:30.042Z,11.95
2023-04-22T00:13:32.822Z,9.41
2023-04-22T00:14:35.486Z,11.10
2023-04-22T00:15:38.145Z,18.29
2023-04-22T00:16:40.952Z,11.30
2023-04-22T00:17:43.649Z,12.73
2023-04-22T00:18:46.573Z,17.37
2023-04-22T00:19:49.347Z,15.88
2023-04-22T00:20:52.352Z,13.47
2023-04-22T00:21:55.200Z,14.16
2023-04-22T00:22:58.057Z,13.65
2023-04-22T00:24:00.932Z,15.31
2023-04-22T00:25:03.813Z,10.68
2023-04-22T00:26:06.599Z,8.21
2023-04-22T00:27:09.353Z,11.84
2023-04-22T00:28:12.235Z,13.62
2023-04-22T00:29:14.904Z,9.33
2023-04-22T00:30:17.696Z,9.98
2023-04-22T00:31:20.523Z,10.13
2023-04-22T00:32:23.226Z,9.86
2023-04-22T00:33:25.895Z,9.85
2023-04-22T00:34:28.470Z,9.57
2023-04-22T00:35:31.011Z,9.12
2023-04-22T00:36:33.792Z,10.49
2023-04-22T00:37:36.565Z,11.45
2023-04-22T00:38:39.232Z,8.72
2023-04-22T00:39:42.296Z,8.94
2023-04-22T00:40:45.295Z,9.10
2023-04-22T00:41:48.080Z,11.81
2023-04-22T00:42:50.759Z,11.62
2023-04-22T00:43:53.532Z,10.85
2023-04-22T00:44:56.172Z,10.08
2023-04-22T00:45:58.953Z,10.42
2023-04-22T00:47:01.721Z,10.36
2023-04-22T00:48:04.525Z,10.42
2023-04-22T00:49:07.368Z,12.60
2023-04-22T00:50:10.241Z,8.24
2023-04-22T00:51:12.809Z,10.47
2023-04-22T00:52:15.439Z,10.38
2023-04-22T00:53:18.254Z,10.36
2023-04-22T00:54:21.232Z,10.35
2023-04-22T00:55:24.009Z,13.12
2023-04-22T00:56:26.666Z,8.38
2023-04-22T00:57:29.229Z,10.82
2023-04-22T00:58:32.012Z,12.07
2023-04-22T00:59:34.591Z,10.49
2023-04-22T01:00:37.368Z,10.87
2023-04-22T01:01:40.049Z,14.50
2023-04-22T01:02:42.912Z,10.50
2023-04-22T01:03:45.888Z,9.75
2023-04-22T01:04:48.640Z,11.36
2023-04-22T01:05:51.529Z,12.17
2023-04-22T01:06:54.191Z,10.57
2023-04-22T01:07:57.082Z,9.75
2023-04-22T01:08:59.637Z,8.58
2023-04-22T01:10:02.497Z,11.87
2023-04-22T01:11:05.089Z,14.13
2023-04-22T01:12:07.738Z,14.18
2023-04-22T01:13:10.413Z,9.55
2023-04-22T01:14:12.975Z,10.22
2023-04-22T01:15:15.657Z,10.09
2023-04-22T01:23:36.925Z,7.73
2023-04-22T01:24:39.682Z,10.99
2023-04-22T01:25:42.257Z,10.86
2023-04-22T01:26:44.911Z,11.05
2023-04-22T01:27:47.751Z,8.70
2023-04-22T01:28:50.452Z,13.78
2023-04-22T01:29:53.237Z,8.98
2023-04-22T01:30:55.814Z,8.45
2023-04-22T01:31:58.522Z,8.75
2023-04-22T01:33:01.291Z,10.29
2023-04-22T01:34:03.919Z,9.53
2023-04-22T01:35:06.792Z,8.84
2023-04-22T01:36:11.678Z,7.74
2023-04-22T01:37:13.562Z,8.14
2023-04-22T01:38:16.248Z,8.38
2023-04-22T01:39:19.200Z,12.58
2023-04-22T01:40:22.180Z,11.19
2023-04-22T01:41:25.077Z,13.17
2023-04-22T01:42:28.045Z,12.56
2023-04-22T01:43:30.718Z,11.10
2023-04-22T01:44:33.380Z,7.45
2023-04-22T01:45:36.089Z,9.59
2023-04-22T01:46:38.940Z,9.82
2023-04-22T01:47:41.728Z,9.17
2023-04-22T01:48:44.599Z,9.78
2023-04-22T01:49:47.235Z,8.65
2023-04-22T01:50:50.011Z,8.28
2023-04-22T01:51:52.795Z,9.51
2023-04-22T01:52:55.566Z,11.27
2023-04-22T01:53:58.247Z,12.63
2023-04-22T01:55:00.911Z,9.36
2023-04-22T01:56:03.595Z,11.98
2023-04-22T01:57:06.347Z,10.26
2023-04-22T01:58:09.109Z,10.97
2023-04-22T01:59:11.885Z,13.20
2023-04-22T02:00:15.120Z,11.68
2023-04-22T02:01:17.814Z,8.41
2023-04-22T02:02:20.909Z,11.78
2023-04-22T02:03:23.959Z,12.20
2023-04-22T02:04:26.986Z,10.95
2023-04-22T02:05:29.866Z,11.19
2023-04-22T02:06:32.519Z,11.53
2023-04-22T02:07:35.292Z,10.69
2023-04-22T02:08:37.882Z,10.78
2023-04-22T02:09:40.935Z,9.91
2023-04-22T02:10:44.146Z,11.37
2023-04-22T02:11:46.786Z,11.60
2023-04-22T02:12:49.575Z,12.05
2023-04-22T02:13:52.221Z,9.01
2023-04-22T02:14:54.890Z,10.66
2023-04-22T02:15:57.494Z,8.45
2023-04-22T02:17:00.135Z,7.47
2023-04-22T02:18:02.897Z,9.26
2023-04-22T02:19:05.584Z,8.54
2023-04-22T02:20:08.268Z,13.17
2023-04-22T02:21:10.910Z,11.75
2023-04-22T02:22:13.687Z,9.90
2023-04-22T02:23:16.361Z,12.82
2023-04-22T02:24:18.919Z,9.20
2023-04-22T02:25:21.592Z,8.78
2023-04-22T02:26:24.275Z,11.68
2023-04-22T02:27:27.248Z,11.10
2023-04-22T02:28:30.112Z,11.95
2023-04-22T02:29:32.901Z,14.26
2023-04-22T02:30:35.556Z,11.78
2023-04-22T02:31:38.615Z,12.66
2023-04-22T02:32:41.456Z,11.28
2023-04-22T02:33:44.090Z,13.82
2023-04-22T02:34:46.868Z,12.06
2023-04-22T02:35:49.613Z,10.21
2023-04-22T02:36:52.408Z,10.43
2023-04-22T02:37:54.962Z,11.62
2023-04-22T02:38:57.727Z,11.42
2023-04-22T02:40:00.504Z,14.58
2023-04-22T02:41:03.290Z,12.97
2023-04-22T02:42:06.049Z,13.07
2023-04-22T02:43:08.815Z,11.48
2023-04-22T02:44:11.590Z,10.98
2023-04-22T02:45:14.574Z,12.81
2023-04-22T02:46:17.408Z,12.35
2023-04-22T02:47:20.018Z,11.71
2023-04-22T02:48:22.685Z,11.13
2023-04-22T02:49:25.356Z,10.95
2023-04-22T02:50:28.334Z,13.19
2023-04-22T02:51:31.120Z,14.37
2023-04-22T02:52:33.775Z,11.88
2023-04-22T02:53:36.554Z,14.49
2023-04-22T02:54:39.118Z,10.53
2023-04-22T02:55:42.187Z,13.11
2023-04-22T02:56:45.273Z,18.05
2023-04-22T02:57:48.043Z,9.48
2023-04-22T02:58:50.917Z,10.52
2023-04-22T02:59:53.631Z,11.60
2023-04-22T03:00:56.582Z,12.06
2023-04-22T03:01:59.249Z,15.46
2023-04-22T03:03:01.991Z,14.50
2023-04-22T03:04:04.694Z,13.82
2023-04-22T03:05:07.322Z,13.93
2023-04-22T03:06:10.217Z,15.85
2023-04-22T03:07:13.308Z,17.69
2023-04-22T03:08:16.282Z,12.08
2023-04-22T03:09:19.012Z,11.47
2023-04-22T03:10:21.937Z,13.32
2023-04-22T03:11:24.794Z,14.13
2023-04-22T03:12:27.887Z,14.17
2023-04-22T03:13:30.552Z,11.25
2023-04-22T03:14:33.418Z,9.83
2023-04-22T03:15:36.195Z,12.87
2023-04-22T03:16:38.905Z,13.48
2023-04-22T03:17:41.735Z,14.85
2023-04-22T03:18:44.404Z,14.69
2023-04-22T03:19:47.197Z,13.38
2023-04-22T03:20:49.955Z,15.75
2023-04-22T03:21:52.744Z,13.77
2023-04-22T03:22:55.804Z,12.91
2023-04-22T03:23:58.925Z,12.27
2023-04-22T03:25:01.693Z,13.18
2023-04-22T03:26:04.342Z,15.58
2023-04-22T03:27:06.905Z,12.68
2023-04-22T03:28:09.597Z,10.83
2023-04-22T03:29:12.434Z,14.22
2023-04-22T03:30:15.151Z,11.83
2023-04-22T03:31:18.029Z,9.73
2023-04-22T03:32:21.140Z,10.81
2023-04-22T03:33:24.048Z,12.15
2023-04-22T03:34:26.930Z,14.03
2023-04-22T03:35:29.484Z,13.14
2023-04-22T03:36:32.261Z,13.45
2023-04-22T03:37:35.235Z,18.73
2023-04-22T03:38:38.115Z,16.11
2023-04-22T03:39:41.253Z,13.72
2023-04-22T03:40:44.175Z,16.22
2023-04-22T03:41:46.857Z,14.28
2023-04-22T03:42:49.642Z,14.91
2023-04-22T03:43:52.598Z,16.48
2023-04-22T03:44:55.329Z,13.64
2023-04-22T03:45:58.520Z,13.91
2023-04-22T03:47:01.516Z,14.14
2023-04-22T03:48:04.786Z,14.19
2023-04-22T03:49:07.802Z,14.50
2023-04-22T03:50:11.207Z,14.52
2023-04-22T03:51:13.993Z,15.52
2023-04-22T03:52:16.721Z,11.18
2023-04-22T03:53:19.399Z,9.71
2023-04-22T03:54:22.058Z,12.48
2023-04-22T03:55:25.090Z,9.04
2023-04-22T03:56:27.875Z,10.23
2023-04-22T03:57:32.230Z,11.58
2023-04-22T03:58:34.877Z,10.37
2023-04-22T03:59:37.998Z,13.51
2023-04-22T04:00:40.827Z,9.49
2023-04-22T04:01:43.393Z,15.40
2023-04-22T04:02:46.247Z,12.25
2023-04-22T04:03:49.344Z,15.39
2023-04-22T04:04:52.297Z,11.93
2023-04-22T04:05:55.463Z,15.12
2023-04-22T04:06:58.246Z,15.69
2023-04-22T04:08:00.877Z,15.03
2023-04-22T04:09:03.521Z,15.53
2023-04-22T04:10:06.200Z,15.37
2023-04-22T04:12:19.111Z,15.68
2023-04-22T04:13:21.690Z,13.65
2023-04-22T04:14:24.459Z,14.66
2023-04-22T04:15:27.019Z,15.37
2023-04-22T04:16:30.168Z,17.06
2023-04-22T04:17:32.983Z,14.25
2023-04-22T04:18:35.640Z,15.68
2023-04-22T04:19:38.666Z,13.02
2023-04-22T04:20:41.498Z,14.80
2023-04-22T04:21:44.293Z,15.24
2023-04-22T04:22:46.847Z,13.01
2023-04-22T04:23:49.700Z,14.05
2023-04-22T04:24:52.516Z,13.86
2023-04-22T04:25:55.139Z,15.90
2023-04-22T04:26:58.047Z,12.63
2023-04-22T04:28:00.590Z,10.82
2023-04-22T04:29:03.391Z,11.92
2023-04-22T04:30:06.186Z,12.02
2023-04-22T04:31:08.938Z,12.48
2023-04-22T04:32:11.807Z,10.27
2023-04-22T04:33:14.510Z,10.78
2023-04-22T04:34:17.216Z,12.26
2023-04-22T04:35:20.102Z,12.96
2023-04-22T04:36:22.762Z,11.70
2023-04-22T04:37:25.748Z,11.88
2023-04-22T04:38:28.309Z,10.66
2023-04-22T04:39:31.081Z,14.80
2023-04-22T04:40:33.761Z,13.07
2023-04-22T04:41:36.328Z,10.07
2023-04-22T04:42:39.100Z,10.38
2023-04-22T04:43:41.767Z,10.53
2023-04-22T04:44:44.320Z,11.11
2023-04-22T04:45:48.691Z,11.20
2023-04-22T04:46:51.347Z,12.57
2023-04-22T04:47:54.117Z,12.72
2023-04-22T04:48:56.960Z,10.91
2023-04-22T04:51:10.073Z,14.27
2023-04-22T04:53:29.273Z,13.34
2023-04-22T04:54:32.032Z,13.29
2023-04-22T04:55:34.707Z,14.38
2023-04-22T04:56:37.872Z,11.11
2023-04-22T04:57:40.640Z,11.02
2023-04-22T04:58:43.323Z,10.54
2023-04-22T04:59:46.179Z,12.52
2023-04-22T05:00:49.095Z,13.00
2023-04-22T05:01:52.295Z,11.68
2023-04-22T05:02:55.218Z,10.45
2023-04-22T05:03:58.282Z,8.61
2023-04-22T05:05:01.373Z,8.34
2023-04-22T05:06:04.252Z,8.66
2023-04-22T05:07:06.926Z,11.45
2023-04-22T05:08:09.693Z,8.25
2023-04-22T05:09:12.673Z,7.86
2023-04-22T05:10:15.918Z,8.40
2023-04-22T05:11:18.830Z,8.35
2023-04-22T05:12:21.821Z,6.48
2023-04-22T05:13:24.679Z,6.42
2023-04-22T05:14:27.658Z,8.92
2023-04-22T05:15:30.537Z,9.14
2023-04-22T05:16:33.319Z,6.45
2023-04-22T05:17:37.466Z,7.68
2023-04-22T05:18:40.356Z,7.58
2023-04-22T05:19:43.276Z,8.43
2023-04-22T05:20:46.153Z,5.59
2023-04-22T05:21:48.990Z,5.76
2023-04-22T05:22:52.422Z,7.44
2023-04-22T05:23:55.473Z,6.01
2023-04-22T05:24:58.349Z,8.37
2023-04-22T05:26:01.335Z,7.16
2023-04-22T05:27:04.130Z,5.79
2023-04-22T05:28:06.989Z,5.88
2023-04-22T05:29:09.761Z,7.48
2023-04-22T05:30:12.526Z,8.48
2023-04-22T05:31:15.198Z,4.82
2023-04-22T05:32:17.953Z,6.82
2023-04-22T05:33:21.260Z,5.90
2023-04-22T05:34:24.122Z,6.26
2023-04-22T05:35:28.542Z,7.80
2023-04-22T05:36:31.928Z,6.57
2023-04-22T05:37:35.100Z,7.09
2023-04-22T05:38:37.767Z,6.98
2023-04-22T05:39:40.708Z,9.12
2023-04-22T05:40:43.520Z,7.87
2023-04-22T05:41:47.087Z,8.91
2023-04-22T05:42:50.192Z,6.70
2023-04-22T05:43:52.872Z,7.25
2023-04-22T05:44:55.728Z,7.07
2023-04-22T05:45:58.797Z,7.32
2023-04-22T05:47:01.681Z,7.32
2023-04-22T05:48:04.369Z,6.56
2023-04-22T05:49:07.037Z,5.45
2023-04-22T05:50:09.897Z,6.82
2023-04-22T05:51:12.877Z,7.60
2023-04-22T05:52:15.658Z,8.38
2023-04-22T05:53:18.323Z,8.50
2023-04-22T05:54:20.893Z,7.71
2023-04-22T05:55:23.656Z,9.34
2023-04-22T05:56:26.393Z,7.41
2023-04-22T05:57:29.003Z,8.91
2023-04-22T05:58:32.065Z,7.74
2023-04-22T05:59:35.076Z,6.88
2023-04-22T06:00:37.719Z,8.52
2023-04-22T06:01:40.607Z,7.24
2023-04-22T06:02:43.543Z,5.45
2023-04-22T06:03:46.607Z,7.02
2023-04-22T06:04:50.226Z,6.58
2023-04-22T06:05:53.615Z,7.29
2023-04-22T06:06:56.516Z,8.85
2023-04-22T06:07:59.083Z,6.25
2023-04-22T06:09:01.750Z,7.62
2023-04-22T06:10:05.630Z,7.01
2023-04-22T06:11:08.612Z,7.78
2023-04-22T06:12:11.375Z,8.71
2023-04-22T06:13:13.981Z,8.88
2023-04-22T06:14:16.568Z,10.26
2023-04-22T06:15:19.300Z,13.42
2023-04-22T06:16:22.077Z,11.12
2023-04-22T06:17:24.985Z,12.88
2023-04-22T06:18:28.458Z,11.68
2023-04-22T06:19:32.137Z,10.93
2023-04-22T06:20:34.710Z,13.32
2023-04-22T06:21:37.576Z,12.69
2023-04-22T06:22:40.266Z,11.85
2023-04-22T06:23:42.840Z,11.78
2023-04-22T06:24:46.403Z,13.86
2023-04-22T06:25:49.720Z,13.81
2023-04-22T06:26:52.453Z,18.72
2023-04-22T06:27:55.535Z,12.02
2023-04-22T06:28:58.419Z,13.80
2023-04-22T06:30:01.398Z,12.95
2023-04-22T06:31:05.929Z,11.24
2023-04-22T06:32:08.873Z,12.99
2023-04-22T06:33:11.871Z,14.39
2023-04-22T06:34:14.646Z,10.61
2023-04-22T06:35:17.194Z,14.48
2023-04-22T06:36:20.195Z,16.85
2023-04-22T06:37:23.052Z,12.57
2023-04-22T06:38:25.819Z,11.86
2023-04-22T06:39:28.609Z,15.11
2023-04-22T06:40:31.482Z,12.11
2023-04-22T06:41:34.336Z,11.37
2023-04-22T06:42:36.940Z,9.45
2023-04-22T06:43:39.633Z,9.93
2023-04-22T06:44:42.554Z,12.83
2023-04-22T06:45:45.533Z,10.08
2023-04-22T06:46:48.548Z,8.78
2023-04-22T06:47:51.424Z,9.44
2023-04-22T06:48:54.063Z,11.61
2023-04-22T06:49:56.622Z,9.24
2023-04-22T06:50:59.324Z,12.69
2023-04-22T06:52:01.981Z,14.09
2023-04-22T06:53:04.572Z,13.33
2023-04-22T06:55:23.892Z,13.43
2023-04-22T06:56:26.781Z,12.27
2023-04-22T06:57:29.666Z,11.35
2023-04-22T06:58:32.423Z,12.52
2023-04-22T06:59:35.312Z,14.52
2023-04-22T07:01:45.893Z,12.64
2023-04-22T07:02:48.983Z,12.23
2023-04-22T07:03:51.837Z,12.85
2023-04-22T07:04:54.837Z,15.20
2023-04-22T07:05:57.577Z,13.62
2023-04-22T07:07:00.238Z,13.48
2023-04-22T07:08:03.119Z,15.86
2023-04-22T07:09:05.768Z,12.28
2023-04-22T07:10:08.365Z,9.32
2023-04-22T07:11:14.579Z,11.67
2023-04-22T07:12:20.640Z,11.22
2023-04-22T07:13:23.422Z,13.13
2023-04-22T07:14:26.291Z,13.24
2023-04-22T07:15:29.084Z,14.78
2023-04-22T07:16:31.800Z,13.86
2023-04-22T07:17:34.544Z,14.87
2023-04-22T07:18:37.425Z,14.76
2023-04-22T07:19:40.579Z,13.02
2023-04-22T07:20:43.957Z,15.62
2023-04-22T07:21:46.712Z,12.38
2023-04-22T07:22:49.701Z,13.99
2023-04-22T07:23:52.404Z,14.11
2023-04-22T07:24:55.304Z,12.08
2023-04-22T07:25:58.024Z,15.03
2023-04-22T07:27:00.827Z,16.76
2023-04-22T07:28:03.355Z,15.98
2023-04-22T07:29:05.914Z,12.92
2023-04-22T07:30:08.620Z,12.82
2023-04-22T07:31:12.864Z,17.53
2023-04-22T07:32:15.498Z,16.21
2023-04-22T07:33:18.072Z,13.78
2023-04-22T07:34:20.592Z,13.76
2023-04-22T07:35:23.158Z,15.84
2023-04-22T07:36:25.838Z,14.35
2023-04-22T07:37:28.624Z,14.76
2023-04-22T07:38:31.206Z,16.70
2023-04-22T07:39:33.948Z,16.83
2023-04-22T07:40:36.619Z,14.93
2023-04-22T07:41:39.214Z,16.84
2023-04-22T07:42:42.162Z,12.37
2023-04-22T07:43:44.968Z,13.96
2023-04-22T07:44:47.702Z,13.54
2023-04-22T07:45:50.947Z,11.51
2023-04-22T07:46:53.864Z,11.79
2023-04-22T07:47:56.452Z,9.62
2023-04-22T07:48:59.116Z,12.03
2023-04-22T07:50:01.830Z,11.67
2023-04-22T07:51:04.431Z,10.78
2023-04-22T07:52:07.130Z,12.75
2023-04-22T07:53:09.777Z,11.15
2023-04-22T07:54:12.455Z,10.68
2023-04-22T07:55:15.333Z,11.33
2023-04-22T07:56:18.013Z,9.89
2023-04-22T07:57:20.564Z,11.30
2023-04-22T07:58:23.344Z,11.42
2023-04-22T07:59:26.118Z,12.52
2023-04-22T08:00:28.828Z,9.36
2023-04-22T08:01:31.446Z,10.14
2023-04-22T08:02:34.372Z,11.25
2023-04-22T08:03:37.264Z,9.25
2023-04-22T08:04:40.348Z,10.30
2023-04-22T08:05:42.946Z,8.69
2023-04-22T08:06:45.521Z,7.58
2023-04-22T08:07:48.489Z,10.43
2023-04-22T08:08:51.368Z,8.11
2023-04-22T08:09:54.237Z,7.42
2023-04-22T08:10:56.912Z,7.75
2023-04-22T08:11:59.690Z,7.48
2023-04-22T08:13:02.565Z,9.19
2023-04-22T08:14:05.428Z,10.28
2023-04-22T08:15:08.207Z,10.94
2023-04-22T08:16:10.823Z,8.95
2023-04-22T08:17:13.450Z,10.11
2023-04-22T08:18:16.322Z,9.58
2023-04-22T08:19:19.098Z,11.23
2023-04-22T08:20:21.873Z,7.82
2023-04-22T08:21:24.752Z,8.83
2023-04-22T08:22:27.415Z,8.75
2023-04-22T08:23:30.279Z,11.22
2023-04-22T08:24:33.158Z,7.94
2023-04-22T08:25:35.837Z,13.15
2023-04-22T08:26:38.400Z,9.13
2023-04-22T08:27:41.169Z,7.15
2023-04-22T08:28:44.153Z,5.97
2023-04-22T08:29:46.818Z,8.11
2023-04-22T08:30:49.491Z,8.55
2023-04-22T08:31:52.150Z,6.55
2023-04-22T08:32:55.043Z,8.77
2023-04-22T08:33:57.802Z,8.12
2023-04-22T08:35:04.804Z,8.78
2023-04-22T08:36:04.771Z,8.33
2023-04-22T08:37:07.776Z,8.32
2023-04-22T08:38:10.433Z,7.68
2023-04-22T08:39:13.296Z,7.00
2023-04-22T08:40:15.972Z,8.54
2023-04-22T08:41:18.641Z,7.48
2023-04-22T08:42:21.626Z,8.68
2023-04-22T08:43:24.301Z,9.32
2023-04-22T08:44:27.054Z,8.77
2023-04-22T08:45:29.825Z,9.19
2023-04-22T08:46:32.553Z,10.70
2023-04-22T08:47:35.394Z,9.44
2023-04-22T08:48:37.999Z,9.88
2023-04-22T08:49:40.749Z,11.18
2023-04-22T08:50:43.695Z,9.12
2023-04-22T08:51:46.557Z,9.32
2023-04-22T08:52:49.672Z,10.00
2023-04-22T08:53:52.221Z,7.72
2023-04-22T08:54:54.898Z,8.68
2023-04-22T08:55:57.475Z,9.93
2023-04-22T08:57:00.047Z,10.67
2023-04-22T08:58:02.923Z,12.07
2023-04-22T08:59:05.694Z,13.02
2023-04-22T09:00:08.453Z,10.13
2023-04-22T09:01:11.141Z,10.05
2023-04-22T09:02:14.109Z,12.92
2023-04-22T09:03:17.223Z,12.49
2023-04-22T09:04:20.042Z,9.89
2023-04-22T09:05:27.730Z,10.15
2023-04-22T09:06:29.787Z,11.39
2023-04-22T09:07:32.360Z,12.08
2023-04-22T09:08:34.918Z,13.49
2023-04-22T09:09:37.714Z,13.25
2023-04-22T09:10:40.570Z,13.45
2023-04-22T09:11:43.128Z,12.16
2023-04-22T09:12:45.801Z,14.00
2023-04-22T09:13:48.487Z,13.32
2023-04-22T09:14:51.140Z,12.45
2023-04-22T09:15:53.938Z,12.75
2023-04-22T09:16:56.804Z,12.82
2023-04-22T09:17:59.424Z,11.08
2023-04-22T09:19:02.130Z,13.25
2023-04-22T09:20:04.795Z,13.53
2023-04-22T09:21:07.468Z,13.53
2023-04-22T09:22:10.044Z,13.91
2023-04-22T09:23:12.717Z,13.18
2023-04-22T09:24:15.371Z,17.42
2023-04-22T09:25:18.048Z,14.68
2023-04-22T09:26:20.731Z,14.65
2023-04-22T09:27:23.486Z,12.20
2023-04-22T09:28:26.500Z,13.04
2023-04-22T09:29:29.127Z,14.18
2023-04-22T09:30:32.122Z,13.77
2023-04-22T09:31:34.936Z,12.74
2023-04-22T09:32:37.582Z,13.49
2023-04-22T09:33:40.432Z,12.35
2023-04-22T09:34:43.510Z,13.78
2023-04-22T09:35:46.611Z,14.55
2023-04-22T09:36:49.451Z,12.05
2023-04-22T09:37:52.316Z,10.76
2023-04-22T09:38:55.007Z,11.22
2023-04-22T09:39:57.775Z,13.20
2023-04-22T09:41:03.143Z,12.46
2023-04-22T09:42:05.879Z,10.60
2023-04-22T09:43:08.645Z,11.82
2023-04-22T09:44:11.322Z,12.87
2023-04-22T09:45:13.997Z,12.43
2023-04-22T09:46:16.597Z,12.38
2023-04-22T09:47:19.325Z,13.05
2023-04-22T09:48:22.200Z,12.40
2023-04-22T09:49:24.878Z,11.43
2023-04-22T09:50:27.650Z,11.68
2023-04-22T09:51:30.336Z,15.28
2023-04-22T09:52:33.005Z,13.22
2023-04-22T09:53:35.550Z,14.18
2023-04-22T09:54:38.426Z,13.86
2023-04-22T09:55:41.095Z,13.25
2023-04-22T09:56:43.696Z,17.90
2023-04-22T09:57:46.450Z,12.56
2023-04-22T09:58:49.207Z,12.47
2023-04-22T09:59:52.084Z,14.65
2023-04-22T10:00:54.687Z,14.79
2023-04-22T10:01:57.728Z,15.57
2023-04-22T10:03:00.732Z,16.82
2023-04-22T10:04:03.881Z,16.38
2023-04-22T10:05:07.479Z,17.10
2023-04-22T10:06:10.157Z,14.98
2023-04-22T10:07:13.750Z,16.09
2023-04-22T10:08:16.598Z,16.91
2023-04-22T10:09:19.495Z,15.14
2023-04-22T10:10:22.078Z,15.01
2023-04-22T10:11:24.831Z,18.14
2023-04-22T10:12:35.195Z,17.21
2023-04-22T10:13:32.414Z,14.18
2023-04-22T10:14:35.089Z,13.49
2023-04-22T10:15:38.172Z,13.06
2023-04-22T10:16:40.868Z,17.74
2023-04-22T10:17:43.669Z,14.52
2023-04-22T10:18:46.593Z,13.62
2023-04-22T10:19:49.270Z,16.14
2023-04-22T10:20:52.051Z,14.58
2023-04-22T10:21:54.723Z,12.79
2023-04-22T10:22:57.469Z,12.91
2023-04-22T10:24:00.090Z,12.52
2023-04-22T10:25:02.816Z,11.37
2023-04-22T10:26:05.591Z,13.18
2023-04-22T10:27:08.672Z,13.55
2023-04-22T10:28:11.456Z,11.45
2023-04-22T10:29:14.034Z,12.48
2023-04-22T10:30:16.687Z,15.45
2023-04-22T10:31:19.584Z,16.33
2023-04-22T10:32:22.232Z,12.38
2023-04-22T10:33:25.095Z,9.46
2023-04-22T10:34:27.770Z,13.82
2023-04-22T10:35:30.433Z,12.98
2023-04-22T10:36:33.306Z,11.72
2023-04-22T10:37:36.192Z,11.59
2023-04-22T10:38:39.053Z,12.61
2023-04-22T10:39:42.115Z,12.55
2023-04-22T10:40:45.637Z,13.36
2023-04-22T10:41:48.309Z,11.30
2023-04-22T10:42:50.860Z,11.57
2023-04-22T10:43:53.542Z,11.95
2023-04-22T10:44:56.076Z,11.11
2023-04-22T10:45:59.119Z,13.35
2023-04-22T10:47:02.042Z,13.35
2023-04-22T10:48:04.770Z,11.08
2023-04-22T10:49:07.404Z,11.70
2023-04-22T10:50:09.893Z,14.10
2023-04-22T10:51:12.655Z,10.80
2023-04-22T10:52:15.325Z,11.04
2023-04-22T10:53:17.979Z,11.48
2023-04-22T10:54:21.140Z,10.94
2023-04-22T10:55:24.159Z,10.49
2023-04-22T10:56:26.706Z,10.44
2023-04-22T10:57:29.270Z,9.96
2023-04-22T10:58:31.955Z,13.61
2023-04-22T10:59:34.617Z,13.05
2023-04-22T11:00:51.705Z,10.83
2023-04-22T11:01:44.079Z,12.19
2023-04-22T11:02:46.798Z,11.65
2023-04-22T11:03:49.639Z,9.68
2023-04-22T11:04:52.173Z,12.12
2023-04-22T11:05:54.832Z,13.52
2023-04-22T11:06:57.600Z,14.27
2023-04-22T11:08:00.172Z,12.53
2023-04-22T11:09:02.835Z,13.06
2023-04-22T11:10:05.817Z,12.39
2023-04-22T11:11:08.698Z,13.53
2023-04-22T11:13:27.440Z,12.95
2023-04-22T11:14:30.112Z,11.65
2023-04-22T11:15:32.753Z,11.98
2023-04-22T11:16:35.392Z,12.82
2023-04-22T11:17:38.085Z,11.16
2023-04-22T11:18:40.702Z,16.04
2023-04-22T11:19:43.487Z,13.24
2023-04-22T11:20:46.033Z,16.48
2023-04-22T11:21:50.759Z,11.55
2023-04-22T11:22:52.896Z,11.41
2023-04-22T11:23:55.570Z,11.83
2023-04-22T11:24:58.147Z,12.62
2023-04-22T11:26:00.805Z,11.76
2023-04-22T11:27:03.484Z,12.57
2023-04-22T11:28:06.153Z,13.48
2023-04-22T11:29:08.956Z,11.73
2023-04-22T11:30:11.605Z,12.64
2023-04-22T11:31:14.286Z,12.12
2023-04-22T11:32:17.120Z,11.34
2023-04-22T11:33:19.813Z,11.83
2023-04-22T11:34:22.472Z,12.70
2023-04-22T11:35:25.355Z,16.19
2023-04-22T11:36:28.223Z,13.61
2023-04-22T11:37:31.303Z,11.59
2023-04-22T11:38:33.974Z,10.54
2023-04-22T11:39:44.293Z,10.75
2023-04-22T11:40:46.189Z,12.23
2023-04-22T11:41:47.214Z,13.28
2023-04-22T11:42:50.021Z,12.21
2023-04-22T11:43:52.657Z,13.31
2023-04-22T11:44:55.530Z,10.71
2023-04-22T11:45:58.491Z,10.80
2023-04-22T11:47:01.184Z,13.39
2023-04-22T11:48:04.107Z,12.28
2023-04-22T11:49:06.624Z,11.13
2023-04-22T11:50:09.316Z,12.63
2023-04-22T11:51:12.070Z,10.81
2023-04-22T11:52:14.724Z,15.59
2023-04-22T11:53:17.398Z,13.61
2023-04-22T11:54:20.061Z,13.91
2023-04-22T11:55:22.949Z,16.52
2023-04-22T11:56:25.627Z,13.06
2023-04-22T11:57:28.337Z,12.05
2023-04-22T11:58:31.384Z,14.85
2023-04-22T11:59:34.229Z,14.57
2023-04-22T12:00:37.416Z,13.38
2023-04-22T12:01:39.975Z,12.58
2023-04-22T12:02:42.736Z,15.19
2023-04-22T12:03:46.095Z,15.91
2023-04-22T12:04:48.823Z,15.41
2023-04-22T12:05:51.487Z,14.27
2023-04-22T12:06:54.264Z,13.79
2023-04-22T12:07:57.119Z,15.92
2023-04-22T12:09:00.119Z,12.17
2023-04-22T12:10:02.869Z,14.18
2023-04-22T12:11:05.563Z,16.36
2023-04-22T12:12:11.946Z,15.14
2023-04-22T12:13:14.674Z,17.72
2023-04-22T12:14:17.545Z,17.67
2023-04-22T12:15:20.313Z,16.30
2023-04-22T12:16:23.042Z,15.31
2023-04-22T12:17:25.738Z,14.13
2023-04-22T12:18:28.323Z,17.17
2023-04-22T12:19:31.198Z,13.45
2023-04-22T12:20:33.790Z,14.23
2023-04-22T12:21:36.435Z,11.69
2023-04-22T12:22:39.103Z,14.53
2023-04-22T12:23:41.988Z,14.59
2023-04-22T12:24:44.855Z,14.27
2023-04-22T12:25:47.425Z,16.26
2023-04-22T12:26:50.191Z,15.38
2023-04-22T12:27:52.866Z,12.07
2023-04-22T12:28:55.539Z,15.55
2023-04-22T12:29:58.208Z,14.65
2023-04-22T12:31:01.014Z,15.75
2023-04-22T12:32:03.775Z,15.44
2023-04-22T12:33:06.441Z,15.51
2023-04-22T12:34:09.059Z,13.70
2023-04-22T12:35:12.279Z,14.33
2023-04-22T12:36:14.948Z,21.35
2023-04-22T12:37:17.732Z,19.15
2023-04-22T12:38:20.505Z,14.08
2023-04-22T12:39:23.166Z,16.54
2023-04-22T12:40:25.750Z,15.39
2023-04-22T12:41:28.410Z,14.84
2023-04-22T12:42:30.965Z,16.11
2023-04-22T12:43:33.655Z,13.35
2023-04-22T12:44:36.246Z,14.77
2023-04-22T12:45:39.291Z,15.52
2023-04-22T12:46:42.006Z,13.76
2023-04-22T12:47:44.750Z,14.47
2023-04-22T12:48:47.399Z,13.39
2023-04-22T12:49:50.186Z,15.32
2023-04-22T12:50:52.843Z,15.10
2023-04-22T12:51:55.509Z,15.02
2023-04-22T12:52:58.291Z,14.95
2023-04-22T12:54:00.755Z,14.18
2023-04-22T12:55:03.327Z,12.18
2023-04-22T12:56:05.978Z,15.48
2023-04-22T12:57:08.657Z,14.85
2023-04-22T12:58:11.314Z,12.71
2023-04-22T12:59:13.893Z,13.56
2023-04-22T13:00:16.491Z,12.49
2023-04-22T13:01:19.083Z,11.21
2023-04-22T13:02:21.823Z,12.22
2023-04-22T13:03:24.655Z,11.41
2023-04-22T13:04:27.710Z,13.96
2023-04-22T13:05:30.830Z,14.28
2023-04-22T13:06:33.505Z,11.72
2023-04-22T13:07:36.271Z,12.35
2023-04-22T13:08:38.834Z,13.41
2023-04-22T13:09:41.846Z,12.29
2023-04-22T13:10:45.765Z,13.16
2023-04-22T13:11:48.583Z,13.70
2023-04-22T13:12:51.270Z,13.18
2023-04-22T13:13:53.938Z,13.26
2023-04-22T13:14:56.489Z,13.42
2023-04-22T13:15:59.220Z,12.22
2023-04-22T13:17:01.942Z,12.08
2023-04-22T13:18:04.740Z,13.42
2023-04-22T13:19:08.617Z,12.52
2023-04-22T13:20:11.687Z,11.41
2023-04-22T13:21:14.358Z,10.97
2023-04-22T13:22:17.033Z,13.55
2023-04-22T13:23:19.909Z,13.25
2023-04-22T13:24:22.678Z,12.61
2023-04-22T13:25:25.349Z,14.82
2023-04-22T13:26:28.024Z,14.01
2023-04-22T13:27:30.790Z,15.01
2023-04-22T13:28:33.658Z,13.43
2023-04-22T13:29:36.747Z,15.33
2023-04-22T13:30:39.429Z,14.45
2023-04-22T13:31:41.936Z,14.60
2023-04-22T13:32:45.110Z,15.03
2023-04-22T13:33:47.721Z,15.85
2023-04-22T13:34:50.395Z,12.97
2023-04-22T13:35:53.157Z,15.85
2023-04-22T13:36:55.850Z,15.55
2023-04-22T13:37:58.470Z,17.55
2023-04-22T13:39:00.973Z,20.49
2023-04-22T13:40:03.646Z,16.37
2023-04-22T13:41:06.321Z,16.57
2023-04-22T13:42:08.892Z,18.23
2023-04-22T13:43:11.849Z,19.17
2023-04-22T13:44:14.528Z,17.95
2023-04-22T13:45:17.111Z,21.13
2023-04-22T13:46:19.836Z,21.75
2023-04-22T13:47:22.474Z,17.65
2023-04-22T13:48:25.269Z,16.80
2023-04-22T13:49:27.984Z,16.41
2023-04-22T13:50:30.916Z,16.88